Castle Douglas, United Kingdom
Current Conditions -  °F | °C
As of 4:50 AM on Sunday 28 Dec 2014 (Local Time) from EGPK Reporting Station
Few Clouds Few Clouds  
Wind Chill: 27°   Ceiling: Unl
Heat Index: 27°   Visibility: 6mi
Dew Point: 25°   Wind: 2mph
Humidity: 93%   Direction: 100°E
Pressure: 30.36"   Gusts: NA
Location:  54.94°N, 3.93°W
Report Text: EGPK 280450Z 10002KT 9999 FEW040 M03/M04 Q1028
Loading
Personal Weather Stations






























Interactive Weather Map New forecast layout! Learn more

10-Day Weather Forecast

Advertisements
Track Severe Weather on mobile